Time;durP1;ratioP1;P1;durP2;ratioP2;P2;SDS_P1;SDS_P2;PMS_P1;PMS_P2;Temp;Humidity;BMP_temperature;BMP_pressure;BME280_temperature;BME280_humidity;BME280_pressure;Samples;Min_cycle;Max_cycle;Signal;HPM_P1;HPM_P2
2021/05/10 00:00:11;;;;;;;2.87;2.57;;;;;;;;;;4851082;29;20237;-79
2021/05/10 00:02:39;;;;;;;4.80;2.37;;;;;;;;;;4867066;29;20234;-79
2021/05/10 00:05:08;;;;;;;2.80;2.10;;;;;;;;;;4860030;29;20248;-80
2021/05/10 00:07:35;;;;;;;4.57;2.37;;;;;;;;;;4867486;29;20612;-78
2021/05/10 00:10:03;;;;;;;3.13;2.47;;;;;;;;;;4854278;29;20233;-80
2021/05/10 00:12:31;;;;;;;3.23;2.30;;;;;;;;;;4858330;29;20243;-78
2021/05/10 00:14:59;;;;;;;4.90;2.80;;;;;;;;;;4867304;29;20241;-78
2021/05/10 00:17:27;;;;;;;2.60;2.20;;;;;;;;;;4851254;29;20233;-77
2021/05/10 00:19:55;;;;;;;3.27;2.13;;;;;;;;;;4850587;29;20316;-79
2021/05/10 00:22:22;;;;;;;4.97;2.30;;;;;;;;;;4846146;29;20230;-79
2021/05/10 00:24:50;;;;;;;1.80;1.30;;;;;;;;;;4842111;29;20419;-79
2021/05/10 00:27:18;;;;;;;1.30;1.10;;;;;;;;;;4862198;29;20229;-78
2021/05/10 00:29:45;;;;;;;1.23;1.10;;;;;;;;;;4848315;29;20244;-77
2021/05/10 00:32:13;;;;;;;1.03;0.83;;;;;;;;;;4831455;29;20241;-78
2021/05/10 00:34:42;;;;;;;1.37;0.87;;;;;;;;;;4844888;29;20539;-80
2021/05/10 00:37:09;;;;;;;1.10;0.93;;;;;;;;;;4845824;29;20246;-78
2021/05/10 00:39:37;;;;;;;0.73;0.73;;;;;;;;;;4859841;29;20241;-78
2021/05/10 00:42:05;;;;;;;3.50;0.90;;;;;;;;;;4858809;29;20237;-77
2021/05/10 00:44:32;;;;;;;3.03;1.17;;;;;;;;;;4847184;29;20234;-76
2021/05/10 00:47:00;;;;;;;2.50;1.00;;;;;;;;;;4857311;29;20575;-77
2021/05/10 00:49:27;;;;;;;1.73;1.27;;;;;;;;;;4842987;29;20246;-77
2021/05/10 00:51:56;;;;;;;1.33;0.90;;;;;;;;;;4845529;29;20617;-77
2021/05/10 00:54:24;;;;;;;1.50;1.00;;;;;;;;;;4844047;29;20234;-77
2021/05/10 00:56:52;;;;;;;2.13;1.10;;;;;;;;;;4852103;29;20237;-76
2021/05/10 00:59:20;;;;;;;1.60;1.00;;;;;;;;;;4842388;29;20246;-75
2021/05/10 01:01:47;;;;;;;1.10;0.90;;;;;;;;;;4853608;29;20226;-78
2021/05/10 01:04:15;;;;;;;1.10;1.00;;;;;;;;;;4856989;29;20226;-77
2021/05/10 01:06:42;;;;;;;1.67;1.07;;;;;;;;;;4847249;29;20230;-76
2021/05/10 01:09:11;;;;;;;2.07;1.00;;;;;;;;;;4859541;29;20237;-75
2021/05/10 01:11:39;;;;;;;1.07;1.00;;;;;;;;;;4849633;29;20230;-75
2021/05/10 01:14:06;;;;;;;1.80;1.03;;;;;;;;;;4860572;29;20234;-76
2021/05/10 01:16:34;;;;;;;3.33;1.10;;;;;;;;;;4863074;29;20260;-76
2021/05/10 01:19:02;;;;;;;3.23;1.00;;;;;;;;;;4863062;29;20238;-75
2021/05/10 01:21:30;;;;;;;1.10;1.00;;;;;;;;;;4853370;29;20619;-76
2021/05/10 01:23:59;;;;;;;3.07;1.20;;;;;;;;;;4850667;29;20237;-76
2021/05/10 01:26:26;;;;;;;2.83;1.30;;;;;;;;;;4827935;29;20619;-75
2021/05/10 01:28:54;;;;;;;3.67;1.50;;;;;;;;;;4859938;29;20238;-76
2021/05/10 01:31:21;;;;;;;1.33;1.10;;;;;;;;;;4863310;29;20230;-77
2021/05/10 01:33:49;;;;;;;1.97;1.10;;;;;;;;;;4871471;29;20222;-77
2021/05/10 01:36:17;;;;;;;1.23;1.10;;;;;;;;;;4861238;29;20237;-77
2021/05/10 01:38:44;;;;;;;1.90;1.00;;;;;;;;;;4847179;29;20488;-76
2021/05/10 01:41:13;;;;;;;1.30;1.10;;;;;;;;;;4858731;29;20244;-76
2021/05/10 01:43:40;;;;;;;3.93;1.10;;;;;;;;;;4846799;29;20235;-76
2021/05/10 01:46:08;;;;;;;2.50;1.07;;;;;;;;;;4860721;29;20717;-76
2021/05/10 01:48:35;;;;;;;1.73;1.30;;;;;;;;;;4868949;29;20672;-76
2021/05/10 01:51:04;;;;;;;1.17;1.07;;;;;;;;;;4855421;29;20233;-76
2021/05/10 01:53:32;;;;;;;1.20;1.10;;;;;;;;;;4865275;29;20233;-76
2021/05/10 01:56:00;;;;;;;1.23;1.00;;;;;;;;;;4863077;29;20226;-77
2021/05/10 01:58:29;;;;;;;1.60;1.03;;;;;;;;;;4857820;29;20242;-76
2021/05/10 02:00:57;;;;;;;1.60;0.90;;;;;;;;;;4844671;29;20723;-77
2021/05/10 02:03:24;;;;;;;1.40;1.30;;;;;;;;;;4862271;29;20238;-76
2021/05/10 02:05:52;;;;;;;1.47;1.00;;;;;;;;;;4841984;29;20752;-77
2021/05/10 02:08:21;;;;;;;3.47;1.10;;;;;;;;;;4870036;29;20237;-77
2021/05/10 02:10:51;;;;;;;1.60;1.20;;;;;;;;;;4859062;29;20233;-78
2021/05/10 02:13:19;;;;;;;2.23;1.00;;;;;;;;;;4863100;29;20237;-77
2021/05/10 02:15:50;;;;;;;1.60;1.03;;;;;;;;;;4850452;29;20227;-76
2021/05/10 02:18:18;;;;;;;2.03;1.00;;;;;;;;;;4841667;29;20226;-78
2021/05/10 02:20:47;;;;;;;3.37;1.57;;;;;;;;;;4854930;29;20234;-76
2021/05/10 02:23:16;;;;;;;1.27;1.07;;;;;;;;;;4834525;29;20230;-76
2021/05/10 02:25:45;;;;;;;1.20;1.10;;;;;;;;;;4843964;29;20227;-77
2021/05/10 02:28:15;;;;;;;2.10;1.13;;;;;;;;;;4866094;29;20248;-76
2021/05/10 02:30:43;;;;;;;2.50;1.10;;;;;;;;;;4843412;29;20241;-76
2021/05/10 02:33:13;;;;;;;2.83;0.90;;;;;;;;;;4866427;29;20229;-76
2021/05/10 02:35:41;;;;;;;1.27;0.90;;;;;;;;;;4841099;29;20249;-76
2021/05/10 02:38:10;;;;;;;2.53;1.00;;;;;;;;;;4843315;29;20258;-77
2021/05/10 02:40:37;;;;;;;2.40;1.10;;;;;;;;;;4849897;29;20562;-77
2021/05/10 02:43:05;;;;;;;5.60;1.10;;;;;;;;;;4856756;29;20242;-78
2021/05/10 02:45:33;;;;;;;1.20;1.10;;;;;;;;;;4865635;29;20242;-77
2021/05/10 02:48:02;;;;;;;1.10;1.00;;;;;;;;;;4847935;29;20237;-78
2021/05/10 02:50:31;;;;;;;2.07;0.90;;;;;;;;;;4861592;29;20701;-76
2021/05/10 02:53:18;;;;;;;1.63;1.07;;;;;;;;;;4858797;29;20720;-77
2021/05/10 02:55:46;;;;;;;1.53;1.07;;;;;;;;;;4851939;29;20233;-76
2021/05/10 02:58:14;;;;;;;2.03;1.07;;;;;;;;;;4850742;29;20238;-76
2021/05/10 03:00:41;;;;;;;2.03;0.93;;;;;;;;;;4855738;29;20238;-77
2021/05/10 03:03:09;;;;;;;1.70;0.97;;;;;;;;;;4861066;29;20238;-77
2021/05/10 03:05:39;;;;;;;1.93;0.90;;;;;;;;;;4860462;29;20528;-76
2021/05/10 03:08:06;;;;;;;0.80;0.80;;;;;;;;;;4862430;29;20238;-77
2021/05/10 03:10:34;;;;;;;1.53;0.93;;;;;;;;;;4864903;29;20312;-77
2021/05/10 03:13:01;;;;;;;1.17;0.90;;;;;;;;;;4849103;29;20238;-78
2021/05/10 03:15:29;;;;;;;1.40;1.00;;;;;;;;;;4847595;29;20744;-77
2021/05/10 03:17:56;;;;;;;0.75;0.75;;;;;;;;;;4848604;29;20245;-77
2021/05/10 03:20:24;;;;;;;1.50;1.03;;;;;;;;;;4849284;29;20701;-77
2021/05/10 03:22:53;;;;;;;0.93;0.90;;;;;;;;;;4846038;29;20233;-76
2021/05/10 03:25:21;;;;;;;1.10;0.90;;;;;;;;;;4850931;29;20225;-76
2021/05/10 03:27:49;;;;;;;1.07;0.90;;;;;;;;;;4846421;29;20234;-76
2021/05/10 03:30:19;;;;;;;1.17;1.07;;;;;;;;;;4867566;29;20238;-76
2021/05/10 03:32:47;;;;;;;0.73;0.73;;;;;;;;;;4861709;29;20252;-75
2021/05/10 03:35:16;;;;;;;2.57;0.90;;;;;;;;;;4865391;29;20229;-77
2021/05/10 03:37:44;;;;;;;0.90;0.90;;;;;;;;;;4854591;29;20704;-76
2021/05/10 03:40:18;;;;;;;1.00;1.00;;;;;;;;;;4852009;29;20628;-77
2021/05/10 03:42:46;;;;;;;2.03;0.90;;;;;;;;;;4864922;29;20311;-76
2021/05/10 03:45:15;;;;;;;1.47;0.67;;;;;;;;;;4844166;29;20674;-77
2021/05/10 03:47:43;;;;;;;1.10;0.83;;;;;;;;;;4860440;29;20241;-76
2021/05/10 03:50:12;;;;;;;1.10;1.00;;;;;;;;;;4848781;29;20241;-76
2021/05/10 03:52:40;;;;;;;2.53;0.80;;;;;;;;;;4852797;29;20715;-76
2021/05/10 03:55:09;;;;;;;1.20;0.70;;;;;;;;;;4851214;29;20561;-77
2021/05/10 03:57:37;;;;;;;1.27;0.90;;;;;;;;;;4849653;29;20237;-78
2021/05/10 04:00:08;;;;;;;1.70;0.80;;;;;;;;;;4844080;29;20296;-76
2021/05/10 04:02:35;;;;;;;0.70;0.70;;;;;;;;;;4844233;29;20230;-77
2021/05/10 04:05:10;;;;;;;1.00;0.90;;;;;;;;;;4860570;29;20229;-77
2021/05/10 04:07:44;;;;;;;0.80;0.73;;;;;;;;;;4840841;29;20229;-76
2021/05/10 04:15:52;;;;;;;2.53;0.97;;;;;;;;;;4852472;29;20250;-77
2021/05/10 04:18:21;;;;;;;1.03;0.80;;;;;;;;;;4859604;29;20226;-76
2021/05/10 04:20:49;;;;;;;0.77;0.70;;;;;;;;;;4863688;29;20229;-77
2021/05/10 04:23:19;;;;;;;2.17;1.00;;;;;;;;;;4860018;29;20598;-77
2021/05/10 04:25:48;;;;;;;2.40;1.00;;;;;;;;;;4864233;29;20245;-78
2021/05/10 04:28:16;;;;;;;2.30;0.80;;;;;;;;;;4829662;29;20685;-77
2021/05/10 04:30:44;;;;;;;1.27;0.80;;;;;;;;;;4869931;29;20616;-77
2021/05/10 04:33:12;;;;;;;1.80;1.10;;;;;;;;;;4849494;29;20226;-79
2021/05/10 04:35:41;;;;;;;1.67;0.83;;;;;;;;;;4852591;29;20229;-78
2021/05/10 04:38:12;;;;;;;2.20;0.90;;;;;;;;;;4844925;29;20234;-77
2021/05/10 04:40:40;;;;;;;1.50;0.90;;;;;;;;;;4868029;29;20230;-78
2021/05/10 04:43:07;;;;;;;3.00;1.03;;;;;;;;;;4854765;29;20237;-77
2021/05/10 04:45:36;;;;;;;1.13;1.00;;;;;;;;;;4865832;29;20845;-77
2021/05/10 04:48:04;;;;;;;2.20;1.20;;;;;;;;;;4849171;29;20233;-77
2021/05/10 04:50:32;;;;;;;3.23;1.07;;;;;;;;;;4839635;29;20233;-77
2021/05/10 04:53:00;;;;;;;1.30;0.90;;;;;;;;;;4847183;29;20230;-77
2021/05/10 04:55:27;;;;;;;1.07;0.97;;;;;;;;;;4843136;29;20237;-77
2021/05/10 04:57:55;;;;;;;1.07;0.97;;;;;;;;;;4839305;29;20250;-77
2021/05/10 05:00:23;;;;;;;1.17;1.07;;;;;;;;;;4864129;29;20222;-77
2021/05/10 05:02:51;;;;;;;2.30;1.10;;;;;;;;;;4844914;29;20226;-78
2021/05/10 05:05:19;;;;;;;1.30;0.90;;;;;;;;;;4847324;29;20317;-77
2021/05/10 05:07:46;;;;;;;0.90;0.80;;;;;;;;;;4854709;29;20250;-77
2021/05/10 05:10:16;;;;;;;0.87;0.83;;;;;;;;;;4865058;29;20725;-76
2021/05/10 05:12:48;;;;;;;1.30;0.80;;;;;;;;;;4841223;29;20233;-77
2021/05/10 05:15:17;;;;;;;2.83;1.00;;;;;;;;;;4837923;29;21228;-77
2021/05/10 05:17:45;;;;;;;0.80;0.80;;;;;;;;;;4858370;29;20633;-77
2021/05/10 05:20:15;;;;;;;0.83;0.80;;;;;;;;;;4835854;29;20260;-78
2021/05/10 05:22:43;;;;;;;1.53;1.10;;;;;;;;;;4866053;29;20236;-78
2021/05/10 05:25:11;;;;;;;2.30;0.70;;;;;;;;;;4864700;29;20261;-78
2021/05/10 05:27:38;;;;;;;1.23;0.80;;;;;;;;;;4843505;29;20246;-78
2021/05/10 05:30:09;;;;;;;0.93;0.90;;;;;;;;;;4848666;29;20478;-76
2021/05/10 05:32:36;;;;;;;1.10;0.93;;;;;;;;;;4860479;29;20230;-78
2021/05/10 05:35:07;;;;;;;1.10;0.80;;;;;;;;;;4861020;29;20748;-77
2021/05/10 05:37:35;;;;;;;1.30;0.80;;;;;;;;;;4847413;29;20603;-76
2021/05/10 05:40:03;;;;;;;0.90;0.90;;;;;;;;;;4846872;29;20234;-77
2021/05/10 05:42:31;;;;;;;1.47;0.80;;;;;;;;;;4850714;29;20238;-76
2021/05/10 05:45:01;;;;;;;2.80;0.83;;;;;;;;;;4829011;29;20230;-76
2021/05/10 05:47:29;;;;;;;2.47;0.90;;;;;;;;;;4862592;29;20226;-77
2021/05/10 05:49:57;;;;;;;0.83;0.83;;;;;;;;;;4842255;29;20233;-76
2021/05/10 05:52:25;;;;;;;1.98;0.75;;;;;;;;;;4843891;29;20230;-76
2021/05/10 05:54:54;;;;;;;1.20;1.00;;;;;;;;;;4848298;29;20229;-76
2021/05/10 05:57:21;;;;;;;1.90;0.80;;;;;;;;;;4850257;29;20732;-76
2021/05/10 05:59:49;;;;;;;1.13;1.03;;;;;;;;;;4850923;29;20252;-76
2021/05/10 06:02:17;;;;;;;1.35;0.90;;;;;;;;;;4869380;29;20226;-76
2021/05/10 06:04:44;;;;;;;1.20;1.00;;;;;;;;;;4858930;29;20237;-78
2021/05/10 06:07:12;;;;;;;4.15;1.23;;;;;;;;;;4864423;29;20245;-76
2021/05/10 06:09:39;;;;;;;1.55;0.90;;;;;;;;;;4868757;29;20235;-76
2021/05/10 06:12:09;;;;;;;2.95;1.10;;;;;;;;;;4874586;29;20215;-76
2021/05/10 06:14:36;;;;;;;1.40;1.00;;;;;;;;;;4872609;29;20217;-76
2021/05/10 06:17:04;;;;;;;1.10;1.00;;;;;;;;;;4876550;29;20227;-77
2021/05/10 06:19:32;;;;;;;2.30;1.08;;;;;;;;;;4887766;29;20218;-76
2021/05/10 06:22:00;;;;;;;2.75;1.02;;;;;;;;;;4862832;29;20245;-76
2021/05/10 06:24:27;;;;;;;2.78;1.00;;;;;;;;;;4864463;29;20749;-76
2021/05/10 06:26:55;;;;;;;3.03;1.33;;;;;;;;;;4833888;29;20234;-76
2021/05/10 06:29:23;;;;;;;2.80;1.10;;;;;;;;;;4846286;29;20241;-75
2021/05/10 06:31:50;;;;;;;4.68;1.33;;;;;;;;;;4842413;29;20554;-75
2021/05/10 06:34:18;;;;;;;1.20;1.00;;;;;;;;;;4850644;29;20245;-76
2021/05/10 06:36:46;;;;;;;3.63;1.30;;;;;;;;;;4858419;29;20237;-74
2021/05/10 06:39:13;;;;;;;1.30;1.20;;;;;;;;;;4856924;29;20226;-75
2021/05/10 06:41:41;;;;;;;3.78;1.42;;;;;;;;;;4875602;29;20237;-75
2021/05/10 06:44:08;;;;;;;1.52;1.42;;;;;;;;;;4838162;29;20242;-76
2021/05/10 06:46:36;;;;;;;3.30;1.60;;;;;;;;;;4848873;29;20829;-77
2021/05/10 06:49:04;;;;;;;1.40;1.30;;;;;;;;;;4841561;29;20708;-77
2021/05/10 06:51:32;;;;;;;2.08;1.52;;;;;;;;;;4852947;29;20250;-77
2021/05/10 06:54:00;;;;;;;2.60;1.40;;;;;;;;;;4852447;29;20249;-77
2021/05/10 06:56:27;;;;;;;2.57;1.53;;;;;;;;;;4852535;29;20230;-77
2021/05/10 06:58:55;;;;;;;2.15;1.45;;;;;;;;;;4850464;29;20721;-77
2021/05/10 07:01:22;;;;;;;5.22;1.55;;;;;;;;;;4856995;29;20238;-77
2021/05/10 07:03:51;;;;;;;1.25;1.05;;;;;;;;;;4850962;29;20237;-77
2021/05/10 07:06:20;;;;;;;3.55;1.90;;;;;;;;;;4852595;29;20227;-76
2021/05/10 07:08:50;;;;;;;3.00;1.50;;;;;;;;;;4846215;29;20234;-77
2021/05/10 07:11:18;;;;;;;2.20;1.58;;;;;;;;;;4864139;29;20238;-77
2021/05/10 07:13:47;;;;;;;1.60;1.50;;;;;;;;;;4852434;29;20637;-77
2021/05/10 07:16:14;;;;;;;1.53;1.20;;;;;;;;;;4865836;29;20714;-77
2021/05/10 07:18:42;;;;;;;5.17;1.63;;;;;;;;;;4836337;29;20222;-76
2021/05/10 07:21:12;;;;;;;2.70;1.30;;;;;;;;;;4833503;29;20727;-78
2021/05/10 07:23:39;;;;;;;2.63;1.23;;;;;;;;;;4846852;29;20238;-77
2021/05/10 07:26:07;;;;;;;1.20;1.10;;;;;;;;;;4843843;29;20230;-77
2021/05/10 07:28:34;;;;;;;1.50;1.40;;;;;;;;;;4860421;29;20226;-77
2021/05/10 07:31:02;;;;;;;2.33;1.60;;;;;;;;;;4846781;29;20237;-78
2021/05/10 07:33:29;;;;;;;2.70;1.63;;;;;;;;;;4858019;29;20229;-77
2021/05/10 07:35:57;;;;;;;3.73;1.70;;;;;;;;;;4859224;29;20703;-77
2021/05/10 07:38:25;;;;;;;2.27;1.37;;;;;;;;;;4841948;29;20246;-77
2021/05/10 07:40:53;;;;;;;2.23;1.50;;;;;;;;;;4863787;29;20644;-79
2021/05/10 07:43:21;;;;;;;1.60;1.50;;;;;;;;;;4844686;29;20234;-78
2021/05/10 07:45:49;;;;;;;3.10;1.93;;;;;;;;;;4857673;29;20617;-78
2021/05/10 07:48:17;;;;;;;2.28;1.70;;;;;;;;;;4858185;29;21136;-79
2021/05/10 07:50:45;;;;;;;2.65;1.50;;;;;;;;;;4863949;29;20237;-78
2021/05/10 07:53:14;;;;;;;3.38;1.55;;;;;;;;;;4846712;29;20608;-78
2021/05/10 07:55:43;;;;;;;2.77;1.60;;;;;;;;;;4845159;29;20233;-77
2021/05/10 07:58:10;;;;;;;4.32;1.42;;;;;;;;;;4848043;29;20241;-77
2021/05/10 08:00:40;;;;;;;2.25;1.70;;;;;;;;;;4853740;29;20226;-78
2021/05/10 08:03:08;;;;;;;6.05;1.75;;;;;;;;;;4844090;29;21003;-78
2021/05/10 08:05:36;;;;;;;3.92;1.88;;;;;;;;;;4851618;29;20226;-78
2021/05/10 08:08:05;;;;;;;3.10;1.80;;;;;;;;;;4841403;29;20233;-80
2021/05/10 08:10:32;;;;;;;4.18;2.75;;;;;;;;;;4844217;29;20233;-79
2021/05/10 08:13:01;;;;;;;5.55;1.85;;;;;;;;;;4849619;29;20226;-78
2021/05/10 08:15:28;;;;;;;2.20;2.00;;;;;;;;;;4858086;29;20257;-79
2021/05/10 08:17:56;;;;;;;4.07;1.70;;;;;;;;;;4859073;29;20244;-78
2021/05/10 08:20:39;;;;;;;2.85;1.50;;;;;;;;;;4847087;29;20234;-78
2021/05/10 08:23:07;;;;;;;2.38;1.60;;;;;;;;;;4846132;29;20234;-78
2021/05/10 08:25:35;;;;;;;4.55;1.70;;;;;;;;;;4849753;29;20226;-78
2021/05/10 08:28:04;;;;;;;3.40;1.67;;;;;;;;;;4860522;29;20229;-78
2021/05/10 08:30:34;;;;;;;9.32;1.73;;;;;;;;;;4839389;29;20253;-78
2021/05/10 08:33:03;;;;;;;67.15;7.38;;;;;;;;;;4834441;29;20223;-78
2021/05/10 08:35:32;;;;;;;4.22;1.70;;;;;;;;;;4841485;29;20234;-78
2021/05/10 08:38:01;;;;;;;1.70;1.60;;;;;;;;;;4846147;29;20533;-78
2021/05/10 08:40:29;;;;;;;2.20;1.73;;;;;;;;;;4859666;29;20230;-78
2021/05/10 08:42:59;;;;;;;3.05;1.60;;;;;;;;;;4854461;29;20835;-78
2021/05/10 08:45:28;;;;;;;4.10;2.22;;;;;;;;;;4837932;29;20230;-78
2021/05/10 08:48:00;;;;;;;3.72;1.95;;;;;;;;;;4838270;29;20234;-77
2021/05/10 08:50:28;;;;;;;2.40;1.52;;;;;;;;;;4855755;29;20611;-79
2021/05/10 08:52:56;;;;;;;3.17;2.10;;;;;;;;;;4847782;29;20230;-78
2021/05/10 08:55:23;;;;;;;3.03;1.67;;;;;;;;;;4832113;29;20281;-78
2021/05/10 08:57:51;;;;;;;3.15;1.73;;;;;;;;;;4846140;29;20234;-78
2021/05/10 09:00:21;;;;;;;2.38;1.90;;;;;;;;;;4850990;29;20233;-78
2021/05/10 09:03:06;;;;;;;2.75;1.77;;;;;;;;;;4860626;29;20230;-77
2021/05/10 09:05:45;;;;;;;2.65;1.63;;;;;;;;;;4852365;29;20229;-78
2021/05/10 09:08:14;;;;;;;2.80;1.63;;;;;;;;;;4845008;29;20238;-79
2021/05/10 09:10:49;;;;;;;5.28;1.75;;;;;;;;;;4852676;29;20285;-78
2021/05/10 09:13:32;;;;;;;3.80;1.40;;;;;;;;;;4843104;29;20573;-79
2021/05/10 09:16:00;;;;;;;2.47;1.40;;;;;;;;;;4865329;29;20855;-79
2021/05/10 09:18:30;;;;;;;4.18;1.73;;;;;;;;;;4870660;29;20231;-79
2021/05/10 09:21:12;;;;;;;4.55;1.80;;;;;;;;;;4851708;29;20237;-78
2021/05/10 09:24:00;;;;;;;3.22;1.65;;;;;;;;;;4845819;29;20222;-79
2021/05/10 09:26:29;;;;;;;2.72;1.70;;;;;;;;;;4848954;29;20587;-79
2021/05/10 09:28:56;;;;;;;2.63;1.40;;;;;;;;;;4853342;29;20456;-79
2021/05/10 09:31:24;;;;;;;3.40;1.75;;;;;;;;;;4848216;29;20470;-78
2021/05/10 09:33:54;;;;;;;3.65;1.65;;;;;;;;;;4853766;29;20226;-79
2021/05/10 09:36:33;;;;;;;3.47;1.88;;;;;;;;;;4871587;29;20242;-79
2021/05/10 09:39:01;;;;;;;3.17;1.98;;;;;;;;;;4855763;29;20249;-78
2021/05/10 09:41:29;;;;;;;5.60;2.10;;;;;;;;;;4858462;29;20226;-80
2021/05/10 09:43:58;;;;;;;2.92;2.30;;;;;;;;;;4842326;29;20222;-80
2021/05/10 09:46:39;;;;;;;3.75;2.42;;;;;;;;;;4850888;29;20235;-79
2021/05/10 09:49:09;;;;;;;8.05;2.17;;;;;;;;;;4858695;29;20234;-80
2021/05/10 09:51:39;;;;;;;7.07;3.70;;;;;;;;;;4858756;29;20233;-79
2021/05/10 09:54:16;;;;;;;3.00;2.25;;;;;;;;;;4866572;29;20920;-79
2021/05/10 09:56:44;;;;;;;4.47;2.15;;;;;;;;;;4851227;29;20253;-79
2021/05/10 09:59:17;;;;;;;3.78;2.30;;;;;;;;;;4854860;29;20253;-79
2021/05/10 10:01:47;;;;;;;4.70;1.95;;;;;;;;;;4838334;29;20234;-78
2021/05/10 10:04:17;;;;;;;6.55;2.20;;;;;;;;;;4859167;29;20242;-78
2021/05/10 10:06:45;;;;;;;3.22;2.55;;;;;;;;;;4852515;29;20249;-78
2021/05/10 10:09:13;;;;;;;2.60;2.00;;;;;;;;;;4864286;29;20666;-79
2021/05/10 10:11:41;;;;;;;4.40;2.13;;;;;;;;;;4860207;29;20242;-79
2021/05/10 10:14:10;;;;;;;2.78;2.30;;;;;;;;;;4844864;29;20248;-78
2021/05/10 10:16:37;;;;;;;3.42;1.63;;;;;;;;;;4842833;29;20245;-81
2021/05/10 10:19:06;;;;;;;3.13;1.85;;;;;;;;;;4836056;29;20254;-81
2021/05/10 10:21:43;;;;;;;5.20;1.70;;;;;;;;;;4843483;29;20232;-80
2021/05/10 10:24:11;;;;;;;3.53;1.88;;;;;;;;;;4857273;29;20281;-81
2021/05/10 10:26:59;;;;;;;2.95;1.83;;;;;;;;;;4865211;29;20238;-79
2021/05/10 10:29:29;;;;;;;3.50;1.73;;;;;;;;;;4852220;29;20234;-79
2021/05/10 10:31:58;;;;;;;6.22;2.08;;;;;;;;;;4867705;29;20266;-81
2021/05/10 10:34:27;;;;;;;2.50;1.70;;;;;;;;;;4869301;29;20740;-81
2021/05/10 10:36:59;;;;;;;3.50;1.73;;;;;;;;;;4852161;29;20235;-79
2021/05/10 10:39:28;;;;;;;3.83;1.88;;;;;;;;;;4877212;29;20730;-80
2021/05/10 10:41:57;;;;;;;1.75;1.58;;;;;;;;;;4860477;29;20443;-78
2021/05/10 10:44:31;;;;;;;2.58;1.70;;;;;;;;;;4857289;29;20235;-79
2021/05/10 10:46:59;;;;;;;2.95;1.45;;;;;;;;;;4871601;29;20237;-80
2021/05/10 10:49:30;;;;;;;2.92;1.40;;;;;;;;;;4877116;29;20238;-80
2021/05/10 10:51:59;;;;;;;1.70;1.50;;;;;;;;;;4867671;29;20231;-80
2021/05/10 10:54:28;;;;;;;2.97;1.63;;;;;;;;;;4870313;29;20230;-78
2021/05/10 10:56:59;;;;;;;5.55;1.58;;;;;;;;;;4854825;29;20726;-79
2021/05/10 10:59:29;;;;;;;1.30;1.20;;;;;;;;;;4869168;29;20230;-80
2021/05/10 11:01:58;;;;;;;1.45;1.20;;;;;;;;;;4845510;29;20638;-80
2021/05/10 11:04:27;;;;;;;1.70;1.25;;;;;;;;;;4849018;29;20735;-79
2021/05/10 11:06:54;;;;;;;2.47;1.52;;;;;;;;;;4843357;29;20237;-79
2021/05/10 11:09:54;;;;;;;2.78;1.20;;;;;;;;;;4849489;29;20242;-78
2021/05/10 11:12:50;;;;;;;1.55;1.30;;;;;;;;;;4846957;29;20233;-78
2021/05/10 11:15:46;;;;;;;1.65;1.20;;;;;;;;;;4850031;29;20242;-78
2021/05/10 11:18:39;;;;;;;2.58;1.30;;;;;;;;;;4842684;29;20229;-79
2021/05/10 11:21:08;;;;;;;2.85;1.20;;;;;;;;;;4868505;29;21799;-78
2021/05/10 11:23:39;;;;;;;1.15;1.00;;;;;;;;;;4852578;29;20249;-77
2021/05/10 11:26:08;;;;;;;1.65;0.90;;;;;;;;;;4864193;29;20244;-80
2021/05/10 11:28:46;;;;;;;1.33;0.90;;;;;;;;;;4862667;29;20230;-78
2021/05/10 11:31:17;;;;;;;1.05;0.90;;;;;;;;;;4855873;29;20968;-79
2021/05/10 11:34:15;;;;;;;1.05;0.70;;;;;;;;;;4862331;29;20226;-80
2021/05/10 11:36:51;;;;;;;1.20;0.70;;;;;;;;;;4849660;29;20252;-78
2021/05/10 11:39:24;;;;;;;1.00;0.80;;;;;;;;;;4854864;29;20241;-80
2021/05/10 11:41:58;;;;;;;0.80;0.80;;;;;;;;;;4862686;29;20242;-79
2021/05/10 11:44:28;;;;;;;0.73;0.73;;;;;;;;;;4862618;29;20225;-78
2021/05/10 11:46:56;;;;;;;1.08;0.80;;;;;;;;;;4860860;29;20242;-77
2021/05/10 11:49:27;;;;;;;0.77;0.77;;;;;;;;;;4853895;29;20234;-79
2021/05/10 11:51:57;;;;;;;0.80;0.80;;;;;;;;;;4845749;29;20242;-78
2021/05/10 11:54:25;;;;;;;2.25;0.77;;;;;;;;;;4856744;29;20540;-77
2021/05/10 11:56:57;;;;;;;0.65;0.60;;;;;;;;;;4852144;29;20729;-77
2021/05/10 11:59:32;;;;;;;1.33;0.60;;;;;;;;;;4851557;29;20253;-79
2021/05/10 12:02:01;;;;;;;1.33;0.60;;;;;;;;;;4849096;29;20233;-78
2021/05/10 12:04:30;;;;;;;1.05;0.60;;;;;;;;;;4850423;29;20246;-77
2021/05/10 12:06:58;;;;;;;0.90;0.60;;;;;;;;;;4862927;29;20246;-78
2021/05/10 12:09:43;;;;;;;0.90;0.60;;;;;;;;;;4859863;29;20234;-78
2021/05/10 12:12:26;;;;;;;0.57;0.57;;;;;;;;;;4865416;29;20656;-79
2021/05/10 12:14:57;;;;;;;0.88;0.70;;;;;;;;;;4865107;29;20231;-79
2021/05/10 12:17:26;;;;;;;0.70;0.60;;;;;;;;;;4875950;29;20224;-79
2021/05/10 12:19:59;;;;;;;1.05;0.60;;;;;;;;;;4891469;29;20238;-78
2021/05/10 12:22:33;;;;;;;0.85;0.70;;;;;;;;;;4876781;29;20222;-78
2021/05/10 12:25:20;;;;;;;0.85;0.60;;;;;;;;;;4862146;29;20735;-78
2021/05/10 12:27:51;;;;;;;1.60;0.60;;;;;;;;;;4856166;29;20221;-79
2021/05/10 12:30:25;;;;;;;0.70;0.60;;;;;;;;;;4871544;29;20238;-79
2021/05/10 12:32:55;;;;;;;1.30;0.60;;;;;;;;;;4854162;29;20245;-79
2021/05/10 12:35:24;;;;;;;0.70;0.70;;;;;;;;;;4854447;29;20744;-78
2021/05/10 12:37:54;;;;;;;1.52;0.60;;;;;;;;;;4868822;29;20289;-79
2021/05/10 12:40:23;;;;;;;0.50;0.50;;;;;;;;;;4876451;29;20241;-79
2021/05/10 12:43:13;;;;;;;1.38;0.50;;;;;;;;;;4879454;29;20233;-79
2021/05/10 12:45:42;;;;;;;0.73;0.60;;;;;;;;;;4864491;29;20230;-77
2021/05/10 12:48:17;;;;;;;0.60;0.60;;;;;;;;;;4869454;29;20245;-78
2021/05/10 12:50:46;;;;;;;0.68;0.68;;;;;;;;;;4873620;29;20226;-79
2021/05/10 12:53:13;;;;;;;0.73;0.50;;;;;;;;;;4848352;29;20242;-79
2021/05/10 12:55:42;;;;;;;0.90;0.50;;;;;;;;;;4848639;29;20594;-79
2021/05/10 12:58:21;;;;;;;0.60;0.60;;;;;;;;;;4861538;29;20234;-81
2021/05/10 13:00:50;;;;;;;1.07;0.50;;;;;;;;;;4857691;29;20229;-80
2021/05/10 13:03:33;;;;;;;2.67;0.60;;;;;;;;;;4873913;29;20241;-79
2021/05/10 13:06:02;;;;;;;4.30;1.20;;;;;;;;;;4840250;29;20732;-80
2021/05/10 13:08:40;;;;;;;0.80;0.70;;;;;;;;;;4861651;29;20241;-80
2021/05/10 13:11:09;;;;;;;3.20;0.90;;;;;;;;;;4862061;29;20225;-79
2021/05/10 13:13:40;;;;;;;1.43;0.93;;;;;;;;;;4870806;29;20218;-77
2021/05/10 13:16:32;;;;;;;0.60;0.60;;;;;;;;;;4884930;29;21064;-80
2021/05/10 13:19:26;;;;;;;1.47;0.80;;;;;;;;;;4867210;29;20237;-80
2021/05/10 13:22:19;;;;;;;1.37;0.70;;;;;;;;;;4833385;29;20704;-79
2021/05/10 13:33:39;;;;;;;2.60;0.77;;;;;;;;;;4871246;29;20234;-80
2021/05/10 13:36:23;;;;;;;0.80;0.70;;;;;;;;;;4855589;29;20234;-79
2021/05/10 13:38:51;;;;;;;0.90;0.70;;;;;;;;;;4871297;29;20246;-79
2021/05/10 13:41:20;;;;;;;0.60;0.60;;;;;;;;;;4838268;29;20558;-79
2021/05/10 13:43:56;;;;;;;0.40;0.40;;;;;;;;;;4849426;29;20238;-79
2021/05/10 13:46:25;;;;;;;0.82;0.60;;;;;;;;;;4852855;29;20246;-79
2021/05/10 13:48:52;;;;;;;0.60;0.60;;;;;;;;;;4872300;29;20246;-80
2021/05/10 13:51:20;;;;;;;0.68;0.60;;;;;;;;;;4870158;29;20234;-79
2021/05/10 13:53:47;;;;;;;1.88;0.77;;;;;;;;;;4857906;29;20613;-78
2021/05/10 13:56:15;;;;;;;0.70;0.70;;;;;;;;;;4848746;29;20249;-81
2021/05/10 13:58:45;;;;;;;1.92;0.70;;;;;;;;;;4834220;29;21656;-78
2021/05/10 14:01:14;;;;;;;0.60;0.60;;;;;;;;;;4847516;29;20227;-79
2021/05/10 14:03:43;;;;;;;1.95;0.70;;;;;;;;;;4867570;29;20234;-80
2021/05/10 14:06:10;;;;;;;1.20;0.80;;;;;;;;;;4853550;29;20223;-79
2021/05/10 14:08:38;;;;;;;1.77;0.60;;;;;;;;;;4871028;29;20230;-79
2021/05/10 14:11:07;;;;;;;0.85;0.60;;;;;;;;;;4858145;29;20248;-80
2021/05/10 14:13:34;;;;;;;0.70;0.70;;;;;;;;;;4838409;29;20245;-79
2021/05/10 14:16:03;;;;;;;0.93;0.70;;;;;;;;;;4858034;29;20230;-79
2021/05/10 14:18:34;;;;;;;0.88;0.70;;;;;;;;;;4858284;29;20225;-78
2021/05/10 14:23:49;;;;;;;1.67;0.50;;;;;;;;;;4868389;29;20231;-79
2021/05/10 14:26:17;;;;;;;0.65;0.63;;;;;;;;;;4858603;29;20233;-80
2021/05/10 14:28:45;;;;;;;1.42;0.60;;;;;;;;;;4865240;29;20242;-80
2021/05/10 14:31:13;;;;;;;2.90;0.80;;;;;;;;;;4867639;29;20261;-79
2021/05/10 14:33:42;;;;;;;1.40;0.60;;;;;;;;;;4857227;29;20223;-79
2021/05/10 14:36:11;;;;;;;1.85;0.70;;;;;;;;;;4859551;29;20237;-79
2021/05/10 14:38:39;;;;;;;1.50;0.80;;;;;;;;;;4856424;29;20234;-79
2021/05/10 14:41:07;;;;;;;0.65;0.60;;;;;;;;;;4869830;29;20238;-78
2021/05/10 14:43:37;;;;;;;1.55;0.70;;;;;;;;;;4862598;29;20234;-79
2021/05/10 14:46:05;;;;;;;0.73;0.73;;;;;;;;;;4866490;29;20237;-78
2021/05/10 14:48:32;;;;;;;3.17;0.77;;;;;;;;;;4867060;29;20233;-79
2021/05/10 14:51:00;;;;;;;0.60;0.60;;;;;;;;;;4881281;29;20226;-80
2021/05/10 14:53:28;;;;;;;1.07;0.80;;;;;;;;;;4874321;29;20493;-81
2021/05/10 14:55:56;;;;;;;1.48;0.80;;;;;;;;;;4862103;29;20704;-80
2021/05/10 14:58:24;;;;;;;1.90;0.77;;;;;;;;;;4881679;29;20241;-79
2021/05/10 15:00:52;;;;;;;0.70;0.70;;;;;;;;;;4879162;29;20759;-80
2021/05/10 15:03:19;;;;;;;0.75;0.60;;;;;;;;;;4856459;29;20597;-78
2021/05/10 15:05:47;;;;;;;0.75;0.75;;;;;;;;;;4877236;29;20230;-79
2021/05/10 15:08:15;;;;;;;0.63;0.63;;;;;;;;;;4874504;29;20238;-78
2021/05/10 15:10:43;;;;;;;0.95;0.75;;;;;;;;;;4844865;29;20230;-78
2021/05/10 15:13:11;;;;;;;0.60;0.60;;;;;;;;;;4862255;29;20233;-80
2021/05/10 15:15:39;;;;;;;0.70;0.70;;;;;;;;;;4875000;29;20221;-80